Time;durP1;ratioP1;P1;durP2;ratioP2;P2;SDS_P1;SDS_P2;PMS_P1;PMS_P2;Temp;Humidity;BMP_temperature;BMP_pressure;BME280_temperature;BME280_humidity;BME280_pressure;Samples;Min_cycle;Max_cycle;Signal;HPM_P1;HPM_P2
2022/11/16 00:01:49;;;;;;;;;;;21.70;72.20;;;;;;484132;246;2192;-49
2022/11/16 00:03:50;;;;;;;;;;;21.70;72.40;;;;;;484296;246;1264;-49
2022/11/16 00:05:51;;;;;;;;;;;21.80;72.40;;;;;;484164;246;1339;-49
2022/11/16 00:07:53;;;;;;;;;;;21.90;72.60;;;;;;484607;246;1218;-49
2022/11/16 00:09:54;;;;;;;;;;;21.80;72.30;;;;;;484383;246;1551;-49
2022/11/16 00:11:55;;;;;;;;;;;21.80;72.50;;;;;;484138;246;1194;-49
2022/11/16 00:13:57;;;;;;;;;;;21.80;72.10;;;;;;484354;246;1278;-49
2022/11/16 00:15:58;;;;;;;;;;;21.90;71.30;;;;;;484308;246;1272;-49
2022/11/16 00:17:59;;;;;;;;;;;21.80;70.50;;;;;;484598;246;1246;-48
2022/11/16 00:20:01;;;;;;;;;;;21.80;70.70;;;;;;484159;246;1217;-49
2022/11/16 00:22:02;;;;;;;;;;;21.80;70.80;;;;;;484583;246;2191;-49
2022/11/16 00:24:04;;;;;;;;;;;21.80;71.20;;;;;;484112;246;1219;-49
2022/11/16 00:26:05;;;;;;;;;;;22.10;70.00;;;;;;484138;246;1328;-49
2022/11/16 00:28:06;;;;;;;;;;;22.20;68.60;;;;;;484178;246;1225;-49
2022/11/16 00:30:08;;;;;;;;;;;22.10;70.70;;;;;;484485;246;1345;-49
2022/11/16 00:32:09;;;;;;;;;;;22.10;72.50;;;;;;484324;246;1833;-49
2022/11/16 00:34:10;;;;;;;;;;;22.00;71.20;;;;;;484568;246;1335;-49
2022/11/16 00:36:11;;;;;;;;;;;22.00;71.30;;;;;;484171;246;1222;-49
2022/11/16 00:38:13;;;;;;;;;;;22.00;72.00;;;;;;484141;246;1375;-49
2022/11/16 00:40:14;;;;;;;;;;;21.90;73.60;;;;;;484165;246;1235;-49
2022/11/16 00:42:15;;;;;;;;;;;22.00;74.80;;;;;;484614;246;2159;-49
2022/11/16 00:44:17;;;;;;;;;;;22.00;74.40;;;;;;484557;246;1202;-49
2022/11/16 00:46:18;;;;;;;;;;;21.90;76.20;;;;;;484528;246;1258;-48
2022/11/16 00:48:21;;;;;;;;;;;;;;;;;;484211;246;1181;-48
2022/11/16 00:50:22;;;;;;;;;;;21.70;42.20;;;;;;484634;245;1233;-49
2022/11/16 00:52:23;;;;;;;;;;;21.70;42.20;;;;;;484195;246;1135;-49
2022/11/16 00:54:25;;;;;;;;;;;21.70;42.20;;;;;;484630;246;1042;-49
2022/11/16 00:56:26;;;;;;;;;;;21.70;42.30;;;;;;484193;246;1216;-49
2022/11/16 00:58:27;;;;;;;;;;;21.70;42.30;;;;;;484398;246;1193;-49
2022/11/16 01:00:28;;;;;;;;;;;21.70;42.30;;;;;;484306;246;1261;-49
2022/11/16 01:02:30;;;;;;;;;;;21.70;42.30;;;;;;484434;246;2163;-49
2022/11/16 01:04:31;;;;;;;;;;;21.70;42.30;;;;;;484140;246;1224;-49
2022/11/16 01:06:32;;;;;;;;;;;21.70;42.20;;;;;;484423;246;1229;-49
2022/11/16 01:08:34;;;;;;;;;;;21.70;42.20;;;;;;484077;246;1215;-49
2022/11/16 01:10:35;;;;;;;;;;;21.80;42.30;;;;;;484354;246;1209;-49
2022/11/16 01:12:36;;;;;;;;;;;21.70;42.20;;;;;;484205;246;1309;-49
2022/11/16 01:14:38;;;;;;;;;;;21.70;42.20;;;;;;484512;246;1705;-49
2022/11/16 01:16:39;;;;;;;;;;;21.80;42.20;;;;;;484423;246;1220;-49
2022/11/16 01:18:40;;;;;;;;;;;21.70;42.20;;;;;;484590;246;1275;-49
2022/11/16 01:20:42;;;;;;;;;;;21.80;42.20;;;;;;484062;246;1256;-49
2022/11/16 01:22:43;;;;;;;;;;;21.80;42.10;;;;;;484370;246;2164;-49
2022/11/16 01:24:44;;;;;;;;;;;21.80;42.20;;;;;;484606;246;1212;-49
2022/11/16 01:26:46;;;;;;;;;;;21.80;42.20;;;;;;484333;246;1346;-50
2022/11/16 01:28:47;;;;;;;;;;;21.80;42.20;;;;;;484203;246;1293;-49
2022/11/16 01:30:48;;;;;;;;;;;21.80;42.20;;;;;;484150;246;1299;-49
2022/11/16 01:32:50;;;;;;;;;;;21.70;42.20;;;;;;484236;246;1242;-49
2022/11/16 01:34:51;;;;;;;;;;;21.70;42.30;;;;;;484586;246;1286;-49
2022/11/16 01:36:52;;;;;;;;;;;21.70;42.30;;;;;;484141;246;1202;-49
2022/11/16 01:38:54;;;;;;;;;;;21.70;42.30;;;;;;484180;246;1417;-49
2022/11/16 01:40:55;;;;;;;;;;;21.60;42.30;;;;;;484288;246;1271;-49
2022/11/16 01:42:56;;;;;;;;;;;21.60;42.30;;;;;;484559;246;2196;-49
2022/11/16 01:44:58;;;;;;;;;;;21.70;42.40;;;;;;484514;246;1268;-49
2022/11/16 01:46:59;;;;;;;;;;;21.70;42.30;;;;;;484548;246;1241;-49
2022/11/16 01:49:01;;;;;;;;;;;21.70;42.30;;;;;;484120;246;1695;-49
2022/11/16 01:51:02;;;;;;;;;;;21.70;42.40;;;;;;484146;246;1380;-49
2022/11/16 01:53:04;;;;;;;;;;;21.60;42.30;;;;;;484591;246;1436;-49
2022/11/16 01:55:05;;;;;;;;;;;21.70;42.40;;;;;;484380;246;1192;-48
2022/11/16 01:57:06;;;;;;;;;;;21.70;42.40;;;;;;484149;246;1307;-49
2022/11/16 01:59:08;;;;;;;;;;;21.70;42.40;;;;;;484286;246;1493;-49
2022/11/16 02:01:09;;;;;;;;;;;21.70;42.40;;;;;;484528;246;1290;-49
2022/11/16 02:03:10;;;;;;;;;;;21.60;42.30;;;;;;484599;246;2164;-49
2022/11/16 02:05:11;;;;;;;;;;;21.60;42.40;;;;;;484203;246;1234;-49
2022/11/16 02:07:13;;;;;;;;;;;21.60;42.40;;;;;;484615;246;1276;-49
2022/11/16 02:11:33;;;;;;;;;;;21.70;42.40;;;;;;484198;246;1232;-48
2022/11/16 02:13:35;;;;;;;;;;;21.70;42.30;;;;;;484378;246;1196;-50
2022/11/16 02:15:36;;;;;;;;;;;21.60;42.30;;;;;;484478;246;1282;-49
2022/11/16 02:17:37;;;;;;;;;;;21.70;42.30;;;;;;484225;246;1180;-49
2022/11/16 02:19:38;;;;;;;;;;;21.70;42.30;;;;;;484622;246;1215;-49
2022/11/16 02:21:40;;;;;;;;;;;21.70;42.30;;;;;;484205;246;2191;-49
2022/11/16 02:23:41;;;;;;;;;;;21.70;42.30;;;;;;484499;246;1140;-49
2022/11/16 02:25:42;;;;;;;;;;;21.70;42.30;;;;;;484210;246;1313;-49
2022/11/16 02:27:44;;;;;;;;;;;21.70;42.30;;;;;;484211;246;1106;-49
2022/11/16 02:29:45;;;;;;;;;;;21.70;42.30;;;;;;484459;246;1158;-49
2022/11/16 02:31:46;;;;;;;;;;;21.70;42.20;;;;;;484188;246;1120;-49
2022/11/16 02:33:48;;;;;;;;;;;21.70;42.20;;;;;;484499;246;1129;-49
2022/11/16 02:35:49;;;;;;;;;;;21.70;42.20;;;;;;484661;246;1089;-49
2022/11/16 02:37:50;;;;;;;;;;;21.70;42.20;;;;;;484505;246;1067;-49
2022/11/16 02:39:52;;;;;;;;;;;21.70;42.30;;;;;;484662;246;1113;-49
2022/11/16 02:41:53;;;;;;;;;;;21.70;42.30;;;;;;484246;246;2161;-49
2022/11/16 02:43:54;;;;;;;;;;;21.70;42.40;;;;;;484359;246;1195;-49
2022/11/16 02:45:56;;;;;;;;;;;21.70;42.40;;;;;;484394;246;1170;-49
2022/11/16 02:47:57;;;;;;;;;;;21.60;42.40;;;;;;484608;246;1297;-49
2022/11/16 02:49:58;;;;;;;;;;;21.60;42.50;;;;;;484648;246;1218;-49
2022/11/16 02:52:00;;;;;;;;;;;21.60;42.40;;;;;;484353;246;1212;-49
2022/11/16 02:54:01;;;;;;;;;;;21.60;42.40;;;;;;484192;246;1370;-49
2022/11/16 02:56:02;;;;;;;;;;;21.60;42.40;;;;;;484401;246;1719;-50
2022/11/16 02:58:04;;;;;;;;;;;21.60;42.50;;;;;;484473;246;1222;-49
2022/11/16 03:00:05;;;;;;;;;;;21.60;42.40;;;;;;484184;246;1295;-49
2022/11/16 03:02:07;;;;;;;;;;;21.60;42.50;;;;;;484569;246;2203;-49
2022/11/16 03:04:08;;;;;;;;;;;21.60;42.40;;;;;;484138;246;1289;-49
2022/11/16 03:06:10;;;;;;;;;;;21.60;42.40;;;;;;484115;246;1267;-49
2022/11/16 03:08:11;;;;;;;;;;;21.60;42.50;;;;;;484103;246;1261;-49
2022/11/16 03:11:58;;;;;;;;;;;21.60;42.50;;;;;;484418;246;1402;-49
2022/11/16 03:12:14;;;;;;;;;;;21.60;42.40;;;;;;482429;246;1487;-49
2022/11/16 03:14:15;;;;;;;;;;;21.60;42.40;;;;;;484098;246;1278;-49
2022/11/16 03:16:17;;;;;;;;;;;21.60;42.40;;;;;;484237;246;1239;-49
2022/11/16 03:18:18;;;;;;;;;;;21.60;42.40;;;;;;484251;246;1385;-49
2022/11/16 03:20:21;;;;;;;;;;;21.60;42.40;;;;;;484079;246;1327;-49
2022/11/16 03:22:21;;;;;;;;;;;21.60;42.40;;;;;;484131;246;2196;-49
2022/11/16 03:24:22;;;;;;;;;;;21.60;42.40;;;;;;484154;246;1506;-49
2022/11/16 03:26:23;;;;;;;;;;;21.60;42.30;;;;;;484156;246;1264;-49
2022/11/16 03:28:26;;;;;;;;;;;21.60;42.30;;;;;;484144;246;1186;-49
2022/11/16 03:30:26;;;;;;;;;;;21.60;42.30;;;;;;484324;246;2089;-50
2022/11/16 03:32:28;;;;;;;;;;;21.60;42.30;;;;;;484480;246;1259;-49
2022/11/16 03:34:29;;;;;;;;;;;21.70;42.30;;;;;;484624;246;1280;-50
2022/11/16 03:36:30;;;;;;;;;;;21.70;42.40;;;;;;484606;246;1276;-49
2022/11/16 03:38:32;;;;;;;;;;;21.70;42.30;;;;;;484185;246;1157;-49
2022/11/16 03:40:33;;;;;;;;;;;21.70;42.30;;;;;;484303;246;1198;-49
2022/11/16 03:42:34;;;;;;;;;;;21.70;42.20;;;;;;484218;246;2156;-49
2022/11/16 03:44:36;;;;;;;;;;;21.70;42.20;;;;;;484613;246;1185;-49
2022/11/16 03:46:37;;;;;;;;;;;21.70;42.20;;;;;;484634;246;1128;-49
2022/11/16 03:48:38;;;;;;;;;;;21.70;42.20;;;;;;484626;246;1189;-49
2022/11/16 03:50:40;;;;;;;;;;;21.70;42.30;;;;;;484429;246;1199;-49
2022/11/16 03:52:41;;;;;;;;;;;21.70;42.30;;;;;;484464;246;1159;-49
2022/11/16 03:54:42;;;;;;;;;;;21.70;42.30;;;;;;484296;246;1157;-48
2022/11/16 03:56:44;;;;;;;;;;;21.70;42.30;;;;;;484539;246;1152;-49
2022/11/16 03:58:45;;;;;;;;;;;21.60;42.40;;;;;;484621;246;1206;-49
2022/11/16 04:00:46;;;;;;;;;;;21.60;42.40;;;;;;484162;246;1334;-49
2022/11/16 04:02:48;;;;;;;;;;;21.60;42.40;;;;;;484143;246;2203;-49
2022/11/16 04:25:52;;;;;;;;;;;21.60;42.40;;;;;;458680;260;1404;-49
2022/11/16 04:30:13;;;;;;;;;;;21.70;42.40;;;;;;460364;259;1475;-49
2022/11/16 04:39:11;;;;;;;;;;;22.10;41.60;;;;;;460510;259;1340;-49
2022/11/16 04:43:33;;;;;;;;;;;22.00;41.60;;;;;;460394;259;2208;-49
2022/11/16 04:47:54;;;;;;;;;;;21.90;41.80;;;;;;460728;259;1398;-49
2022/11/16 04:49:55;;;;;;;;;;;21.90;42.00;;;;;;459033;259;1282;-49
2022/11/16 04:51:57;;;;;;;;;;;21.90;42.00;;;;;;460533;259;1301;-49
2022/11/16 04:53:58;;;;;;;;;;;21.80;42.00;;;;;;458789;259;1287;-49
2022/11/16 04:55:59;;;;;;;;;;;21.80;42.10;;;;;;473337;246;1239;-49
2022/11/16 04:58:00;;;;;;;;;;;21.80;42.10;;;;;;485149;246;1405;-49
2022/11/16 05:00:02;;;;;;;;;;;21.80;42.10;;;;;;485174;246;1609;-49
2022/11/16 05:02:09;;;;;;;;;;;21.80;42.10;;;;;;485271;246;1267;-49
2022/11/16 05:04:11;;;;;;;;;;;21.80;42.10;;;;;;485134;246;2218;-49
2022/11/16 05:06:12;;;;;;;;;;;21.80;42.20;;;;;;485198;246;1233;-49
2022/11/16 05:08:13;;;;;;;;;;;21.70;42.20;;;;;;485627;246;1179;-49
2022/11/16 05:10:14;;;;;;;;;;;21.70;42.30;;;;;;485284;246;1216;-49
2022/11/16 05:12:16;;;;;;;;;;;21.70;42.30;;;;;;485151;246;1231;-49
2022/11/16 05:14:17;;;;;;;;;;;21.70;42.30;;;;;;485498;246;1188;-49
2022/11/16 05:16:18;;;;;;;;;;;21.70;42.40;;;;;;485175;246;1204;-49
2022/11/16 05:18:20;;;;;;;;;;;21.70;42.30;;;;;;485207;246;1135;-49
2022/11/16 05:22:40;;;;;;;;;;;21.70;42.30;;;;;;485253;246;2171;-49
2022/11/16 05:24:42;;;;;;;;;;;21.70;42.40;;;;;;485187;246;1357;-49
2022/11/16 05:26:43;;;;;;;;;;;21.70;42.40;;;;;;485278;246;1230;-50
2022/11/16 05:28:44;;;;;;;;;;;21.60;42.40;;;;;;485276;246;1235;-49
2022/11/16 05:30:46;;;;;;;;;;;21.60;42.40;;;;;;485124;246;1697;-49
2022/11/16 05:32:47;;;;;;;;;;;21.60;42.40;;;;;;485149;246;1093;-49
2022/11/16 05:34:48;;;;;;;;;;;21.60;42.40;;;;;;485593;246;1491;-49
2022/11/16 05:36:50;;;;;;;;;;;21.60;42.40;;;;;;485097;246;1261;-49
2022/11/16 05:38:51;;;;;;;;;;;21.70;42.40;;;;;;485573;246;1232;-49
2022/11/16 05:40:52;;;;;;;;;;;21.70;42.40;;;;;;485353;246;1185;-49
2022/11/16 05:42:54;;;;;;;;;;;21.70;42.40;;;;;;485252;246;2148;-49
2022/11/16 05:44:55;;;;;;;;;;;21.70;42.40;;;;;;484992;246;1330;-49
2022/11/16 05:46:56;;;;;;;;;;;21.70;42.40;;;;;;485616;246;1248;-49
2022/11/16 05:48:58;;;;;;;;;;;21.60;42.30;;;;;;485640;246;1167;-50
2022/11/16 05:50:59;;;;;;;;;;;21.70;42.40;;;;;;485113;246;1639;-49
2022/11/16 05:53:00;;;;;;;;;;;21.70;42.40;;;;;;485526;246;1185;-50
2022/11/16 05:55:02;;;;;;;;;;;21.70;42.40;;;;;;485250;246;1205;-49
2022/11/16 05:57:03;;;;;;;;;;;21.70;42.30;;;;;;485031;246;1210;-49
2022/11/16 05:59:04;;;;;;;;;;;21.70;42.30;;;;;;485303;246;1243;-50
2022/11/16 06:01:06;;;;;;;;;;;21.70;42.30;;;;;;485154;246;1150;-49
2022/11/16 06:03:07;;;;;;;;;;;21.70;42.20;;;;;;485255;246;2152;-48
2022/11/16 06:05:08;;;;;;;;;;;21.70;42.20;;;;;;485606;246;1265;-49
2022/11/16 06:07:10;;;;;;;;;;;21.70;42.20;;;;;;485575;246;1260;-49
2022/11/16 06:09:11;;;;;;;;;;;21.80;42.30;;;;;;485133;246;1484;-49
2022/11/16 06:11:12;;;;;;;;;;;21.80;42.30;;;;;;485023;246;1700;-50
2022/11/16 06:13:14;;;;;;;;;;;21.70;42.20;;;;;;485006;246;1259;-49
2022/11/16 06:15:15;;;;;;;;;;;21.70;42.30;;;;;;485440;246;1235;-49
2022/11/16 06:17:16;;;;;;;;;;;21.70;42.40;;;;;;485238;246;1326;-49
2022/11/16 06:19:17;;;;;;;;;;;21.70;42.40;;;;;;485246;246;1301;-49
2022/11/16 06:21:19;;;;;;;;;;;21.60;42.40;;;;;;485004;246;1529;-49
2022/11/16 06:23:20;;;;;;;;;;;21.70;42.50;;;;;;484989;246;2182;-49
2022/11/16 06:25:21;;;;;;;;;;;21.70;42.40;;;;;;485507;246;1664;-49
2022/11/16 06:27:23;;;;;;;;;;;21.60;42.40;;;;;;484985;246;1167;-49
2022/11/16 06:29:24;;;;;;;;;;;21.60;42.50;;;;;;485167;246;1239;-49
2022/11/16 06:31:25;;;;;;;;;;;21.60;42.50;;;;;;485157;246;1609;-49
2022/11/16 06:33:27;;;;;;;;;;;21.60;42.50;;;;;;484973;242;1228;-49
2022/11/16 06:35:28;;;;;;;;;;;21.60;42.50;;;;;;485011;246;1218;-49
2022/11/16 06:37:29;;;;;;;;;;;21.60;42.50;;;;;;485100;246;1192;-49
2022/11/16 06:39:31;;;;;;;;;;;21.60;42.50;;;;;;485080;246;1501;-49
2022/11/16 06:41:33;;;;;;;;;;;21.60;42.50;;;;;;484921;246;1281;-49
2022/11/16 06:43:33;;;;;;;;;;;21.60;42.50;;;;;;485197;246;2171;-49
2022/11/16 06:45:35;;;;;;;;;;;21.60;42.50;;;;;;485062;246;1280;-50
2022/11/16 06:47:36;;;;;;;;;;;21.60;42.50;;;;;;484983;246;1236;-50
2022/11/16 06:49:37;;;;;;;;;;;21.70;42.50;;;;;;484997;246;1156;-48
2022/11/16 06:51:39;;;;;;;;;;;21.60;42.40;;;;;;484773;246;1667;-49
2022/11/16 06:53:40;;;;;;;;;;;21.70;42.50;;;;;;485050;246;1237;-49
2022/11/16 06:55:41;;;;;;;;;;;21.70;42.50;;;;;;485082;246;1289;-49
2022/11/16 06:57:43;;;;;;;;;;;21.70;42.50;;;;;;485137;246;1287;-49
2022/11/16 06:59:44;;;;;;;;;;;21.70;42.50;;;;;;485171;246;1118;-49
2022/11/16 07:01:45;;;;;;;;;;;21.60;42.50;;;;;;484752;246;1241;-49
2022/11/16 07:03:47;;;;;;;;;;;21.70;42.40;;;;;;485226;246;2200;-49
2022/11/16 07:05:48;;;;;;;;;;;21.70;42.40;;;;;;485273;246;1593;-49
2022/11/16 07:07:49;;;;;;;;;;;21.70;42.30;;;;;;485052;246;1164;-49
2022/11/16 07:09:51;;;;;;;;;;;21.80;42.20;;;;;;484945;246;1313;-48
2022/11/16 07:11:52;;;;;;;;;;;21.90;42.10;;;;;;484764;246;1659;-49
2022/11/16 07:13:53;;;;;;;;;;;22.00;41.90;;;;;;484751;246;1212;-49
2022/11/16 07:15:55;;;;;;;;;;;21.90;41.80;;;;;;484745;246;1229;-49
2022/11/16 07:17:56;;;;;;;;;;;21.90;41.80;;;;;;484907;246;1168;-49
2022/11/16 07:19:57;;;;;;;;;;;21.90;41.80;;;;;;485030;246;1230;-49
2022/11/16 07:21:59;;;;;;;;;;;21.90;41.80;;;;;;484637;246;1645;-49
2022/11/16 07:24:00;;;;;;;;;;;22.00;41.70;;;;;;484859;246;2160;-49
2022/11/16 07:26:02;;;;;;;;;;;21.90;41.80;;;;;;485025;246;1296;-49
2022/11/16 07:28:05;;;;;;;;;;;21.90;41.80;;;;;;484809;246;1253;-48
2022/11/16 07:30:05;;;;;;;;;;;21.80;41.90;;;;;;484968;246;2020;-49
2022/11/16 07:32:07;;;;;;;;;;;21.80;42.00;;;;;;484913;246;1346;-49
2022/11/16 07:34:08;;;;;;;;;;;21.80;42.00;;;;;;484850;246;1368;-49
2022/11/16 07:36:10;;;;;;;;;;;21.80;42.00;;;;;;484925;246;1207;-49
2022/11/16 07:38:11;;;;;;;;;;;21.90;41.90;;;;;;484868;246;1561;-49
2022/11/16 07:40:13;;;;;;;;;;;21.90;41.90;;;;;;484693;246;1505;-50
2022/11/16 07:42:14;;;;;;;;;;;21.90;41.80;;;;;;484584;242;1298;-50
2022/11/16 07:44:15;;;;;;;;;;;21.90;41.80;;;;;;484551;246;2195;-49
2022/11/16 07:46:16;;;;;;;;;;;21.90;41.90;;;;;;484461;246;1269;-49
2022/11/16 07:48:18;;;;;;;;;;;21.90;41.90;;;;;;483978;246;1237;-49
2022/11/16 07:50:19;;;;;;;;;;;21.90;41.90;;;;;;484173;246;1204;-49
2022/11/16 07:52:20;;;;;;;;;;;21.90;41.90;;;;;;484375;246;1333;-49
2022/11/16 07:54:22;;;;;;;;;;;21.90;41.90;;;;;;484257;246;1223;-49
2022/11/16 07:56:23;;;;;;;;;;;21.80;42.00;;;;;;484470;246;1282;-49
2022/11/16 07:58:25;;;;;;;;;;;21.80;41.90;;;;;;484420;246;1360;-49
2022/11/16 08:00:26;;;;;;;;;;;21.80;42.00;;;;;;484451;246;1217;-50
2022/11/16 08:02:27;;;;;;;;;;;21.80;41.90;;;;;;484710;246;1324;-49
2022/11/16 08:04:29;;;;;;;;;;;21.90;42.00;;;;;;484344;246;2199;-50
2022/11/16 08:06:30;;;;;;;;;;;21.80;42.00;;;;;;484390;246;1424;-49
2022/11/16 08:08:32;;;;;;;;;;;21.80;42.00;;;;;;484041;246;1290;-49
2022/11/16 08:10:33;;;;;;;;;;;21.80;42.00;;;;;;484643;246;1271;-49
2022/11/16 08:12:34;;;;;;;;;;;21.90;42.00;;;;;;484550;246;1185;-49
2022/11/16 08:14:36;;;;;;;;;;;21.90;42.00;;;;;;484434;246;1353;-49
2022/11/16 08:16:37;;;;;;;;;;;21.80;41.90;;;;;;484576;246;1201;-49
2022/11/16 08:18:38;;;;;;;;;;;21.90;42.00;;;;;;484363;246;1238;-49
2022/11/16 08:20:40;;;;;;;;;;;21.80;41.90;;;;;;484259;246;1203;-49
2022/11/16 08:22:41;;;;;;;;;;;21.90;42.00;;;;;;484283;246;1293;-49
2022/11/16 08:24:42;;;;;;;;;;;21.80;41.90;;;;;;484548;246;2168;-49
2022/11/16 08:26:44;;;;;;;;;;;21.90;42.00;;;;;;484439;246;1347;-49
2022/11/16 08:28:45;;;;;;;;;;;21.90;42.00;;;;;;484410;246;1260;-48
2022/11/16 08:30:48;;;;;;;;;;;21.90;42.00;;;;;;484445;246;1275;-49
2022/11/16 08:32:48;;;;;;;;;;;21.80;41.90;;;;;;484353;246;1909;-49
2022/11/16 08:34:49;;;;;;;;;;;21.80;42.00;;;;;;484486;246;1225;-49
2022/11/16 08:36:50;;;;;;;;;;;21.80;42.00;;;;;;484489;246;1186;-48
2022/11/16 08:38:52;;;;;;;;;;;21.80;42.00;;;;;;484405;246;1550;-49
2022/11/16 08:40:53;;;;;;;;;;;21.80;42.10;;;;;;484534;246;1573;-50
2022/11/16 08:42:55;;;;;;;;;;;21.70;42.30;;;;;;484390;246;1404;-49
2022/11/16 08:44:56;;;;;;;;;;;21.60;42.40;;;;;;484250;246;2195;-49
2022/11/16 08:46:57;;;;;;;;;;;21.80;42.30;;;;;;484322;246;1289;-49
2022/11/16 08:48:58;;;;;;;;;;;22.00;41.90;;;;;;484341;246;1399;-50
2022/11/16 08:51:00;;;;;;;;;;;22.10;41.60;;;;;;484521;246;1175;-49
2022/11/16 08:53:01;;;;;;;;;;;22.10;41.50;;;;;;484708;246;1245;-49
2022/11/16 08:55:02;;;;;;;;;;;22.00;41.70;;;;;;484667;246;1343;-49
2022/11/16 08:57:04;;;;;;;;;;;21.90;41.90;;;;;;484371;246;1194;-49
2022/11/16 08:59:05;;;;;;;;;;;21.80;42.00;;;;;;484408;246;1282;-49
2022/11/16 09:01:06;;;;;;;;;;;21.80;42.20;;;;;;484359;246;1291;-49
2022/11/16 09:03:08;;;;;;;;;;;21.80;42.30;;;;;;484663;246;1272;-49
2022/11/16 09:05:10;;;;;;;;;;;21.70;42.30;;;;;;484529;246;2188;-49
2022/11/16 09:07:10;;;;;;;;;;;21.70;42.30;;;;;;484373;246;1313;-49
2022/11/16 09:09:12;;;;;;;;;;;21.80;42.30;;;;;;484581;246;1256;-49
2022/11/16 09:11:14;;;;;;;;;;;21.90;42.30;;;;;;484458;246;1214;-49
2022/11/16 09:13:14;;;;;;;;;;;21.90;42.20;;;;;;484574;246;1975;-48
2022/11/16 09:15:18;;;;;;;;;;;21.90;42.10;;;;;;484799;246;1435;-49
2022/11/16 09:17:17;;;;;;;;;;;22.00;42.00;;;;;;484460;246;1965;-48
2022/11/16 09:19:19;;;;;;;;;;;22.00;42.00;;;;;;484573;246;1264;-48
2022/11/16 09:21:20;;;;;;;;;;;22.00;41.90;;;;;;484551;246;1832;-48
2022/11/16 09:23:21;;;;;;;;;;;22.10;41.90;;;;;;484571;246;1240;-49
2022/11/16 09:25:23;;;;;;;;;;;22.10;41.80;;;;;;484706;246;2144;-48
2022/11/16 09:27:24;;;;;;;;;;;22.10;41.70;;;;;;484718;246;1258;-49
2022/11/16 09:29:26;;;;;;;;;;;22.20;41.70;;;;;;484501;246;1326;-48
2022/11/16 09:31:27;;;;;;;;;;;22.20;41.60;;;;;;484741;246;1241;-49
2022/11/16 09:33:29;;;;;;;;;;;22.30;41.60;;;;;;484776;246;1285;-49
2022/11/16 09:35:30;;;;;;;;;;;22.30;41.50;;;;;;484719;246;1523;-49
2022/11/16 09:37:31;;;;;;;;;;;22.30;41.40;;;;;;484723;246;1197;-48
2022/11/16 09:39:33;;;;;;;;;;;22.40;41.30;;;;;;484481;246;1655;-48
2022/11/16 09:41:34;;;;;;;;;;;22.40;41.30;;;;;;484638;246;1451;-49
2022/11/16 09:43:35;;;;;;;;;;;22.30;41.30;;;;;;484721;246;1236;-49
2022/11/16 09:45:37;;;;;;;;;;;22.30;41.50;;;;;;484416;246;2156;-49
2022/11/16 09:47:38;;;;;;;;;;;22.20;41.60;;;;;;484544;246;1220;-49
2022/11/16 09:49:39;;;;;;;;;;;22.20;41.70;;;;;;484696;246;1201;-49
2022/11/16 09:51:41;;;;;;;;;;;22.20;41.80;;;;;;484909;242;1230;-49
2022/11/16 09:53:42;;;;;;;;;;;22.10;41.90;;;;;;484696;246;1498;-49
2022/11/16 09:55:44;;;;;;;;;;;22.10;41.90;;;;;;484653;246;1775;-49
2022/11/16 09:57:45;;;;;;;;;;;22.00;42.00;;;;;;484691;246;1242;-49
2022/11/16 09:59:46;;;;;;;;;;;22.00;42.10;;;;;;484458;246;1285;-49
2022/11/16 10:01:48;;;;;;;;;;;22.00;42.20;;;;;;484710;246;1242;-50
2022/11/16 10:03:49;;;;;;;;;;;21.90;42.30;;;;;;484523;246;1280;-49
2022/11/16 10:05:50;;;;;;;;;;;21.90;42.30;;;;;;484526;246;2200;-49
2022/11/16 10:07:52;;;;;;;;;;;21.90;42.40;;;;;;484797;246;1196;-50
2022/11/16 10:09:53;;;;;;;;;;;21.90;42.50;;;;;;484325;246;1980;-49
2022/11/16 10:11:55;;;;;;;;;;;21.90;42.50;;;;;;484508;246;1274;-49
2022/11/16 10:13:56;;;;;;;;;;;21.90;42.40;;;;;;484214;246;1207;-50
2022/11/16 10:15:59;;;;;;;;;;;22.00;42.50;;;;;;484237;246;1219;-50
2022/11/16 10:17:58;;;;;;;;;;;22.00;42.40;;;;;;484393;246;2072;-50
2022/11/16 10:20:00;;;;;;;;;;;22.00;42.40;;;;;;484451;246;1204;-50
2022/11/16 10:22:01;;;;;;;;;;;22.00;42.40;;;;;;484452;246;1245;-50
2022/11/16 10:24:02;;;;;;;;;;;22.00;42.40;;;;;;484486;246;1187;-50
2022/11/16 10:26:04;;;;;;;;;;;22.00;42.40;;;;;;484568;246;2201;-50
2022/11/16 10:28:05;;;;;;;;;;;22.00;42.30;;;;;;484649;246;1168;-51
2022/11/16 10:30:06;;;;;;;;;;;22.00;42.40;;;;;;484483;246;1480;-50
2022/11/16 10:32:08;;;;;;;;;;;22.00;42.40;;;;;;484422;246;1417;-50
2022/11/16 10:34:09;;;;;;;;;;;22.00;42.40;;;;;;484353;246;1231;-50
2022/11/16 10:36:10;;;;;;;;;;;22.00;42.40;;;;;;484468;246;1227;-51
2022/11/16 10:38:12;;;;;;;;;;;22.00;42.50;;;;;;484433;246;1258;-51
2022/11/16 10:40:13;;;;;;;;;;;21.90;42.50;;;;;;484505;246;1512;-49
2022/11/16 10:42:15;;;;;;;;;;;21.90;42.60;;;;;;484678;246;1334;-50
2022/11/16 10:44:16;;;;;;;;;;;21.90;42.60;;;;;;484534;246;1177;-50
2022/11/16 10:46:18;;;;;;;;;;;21.90;42.60;;;;;;484682;246;2183;-50
2022/11/16 10:48:19;;;;;;;;;;;21.90;42.70;;;;;;484495;246;1159;-50
2022/11/16 10:50:20;;;;;;;;;;;21.90;42.70;;;;;;484833;246;1221;-50
2022/11/16 10:52:22;;;;;;;;;;;21.90;42.70;;;;;;484583;246;1716;-50
2022/11/16 10:54:23;;;;;;;;;;;21.90;42.70;;;;;;484644;246;1254;-50
2022/11/16 10:56:25;;;;;;;;;;;21.90;42.70;;;;;;484532;246;1849;-50
2022/11/16 10:58:26;;;;;;;;;;;21.80;42.70;;;;;;484595;246;1319;-50
2022/11/16 11:00:27;;;;;;;;;;;21.90;42.80;;;;;;484783;246;1182;-51
2022/11/16 11:02:30;;;;;;;;;;;21.80;42.70;;;;;;484530;246;1190;-50
2022/11/16 11:04:31;;;;;;;;;;;21.90;42.80;;;;;;484588;246;2191;-50
2022/11/16 11:06:33;;;;;;;;;;;21.90;42.80;;;;;;484496;246;1179;-50
2022/11/16 11:08:34;;;;;;;;;;;21.80;42.70;;;;;;484759;246;1274;-50
2022/11/16 11:10:35;;;;;;;;;;;21.80;42.80;;;;;;484602;246;1282;-50
2022/11/16 11:12:40;;;;;;;;;;;21.90;42.80;;;;;;484647;246;1266;-50
2022/11/16 11:14:41;;;;;;;;;;;21.90;42.80;;;;;;484500;246;1513;-50
2022/11/16 11:16:42;;;;;;;;;;;21.90;42.80;;;;;;484645;246;1212;-49
2022/11/16 11:18:43;;;;;;;;;;;21.80;42.80;;;;;;484566;246;1289;-50
2022/11/16 11:20:45;;;;;;;;;;;21.90;42.80;;;;;;484664;246;1667;-51
2022/11/16 11:22:46;;;;;;;;;;;21.90;42.80;;;;;;484566;246;1349;-49
2022/11/16 11:24:47;;;;;;;;;;;21.90;42.80;;;;;;484656;246;2156;-49
2022/11/16 11:26:49;;;;;;;;;;;21.80;42.90;;;;;;484756;246;1197;-50
2022/11/16 11:28:50;;;;;;;;;;;21.80;42.90;;;;;;484556;246;1355;-50
2022/11/16 11:30:51;;;;;;;;;;;21.80;43.00;;;;;;484775;246;1377;-50
2022/11/16 11:32:53;;;;;;;;;;;21.80;43.10;;;;;;484576;246;1297;-50
2022/11/16 11:34:54;;;;;;;;;;;21.80;43.10;;;;;;484509;246;1217;-50
2022/11/16 11:36:56;;;;;;;;;;;21.70;43.10;;;;;;484776;246;1549;-50
2022/11/16 11:38:57;;;;;;;;;;;21.80;43.10;;;;;;484535;246;1298;-50
2022/11/16 11:40:58;;;;;;;;;;;21.80;43.10;;;;;;484544;246;1263;-50
2022/11/16 11:43:00;;;;;;;;;;;21.80;43.10;;;;;;484464;246;1265;-50
2022/11/16 11:45:01;;;;;;;;;;;21.90;42.90;;;;;;484512;246;2192;-49
2022/11/16 11:47:02;;;;;;;;;;;22.10;42.60;;;;;;484658;246;1179;-50
2022/11/16 11:49:04;;;;;;;;;;;22.10;42.60;;;;;;484737;246;1225;-50
2022/11/16 11:51:05;;;;;;;;;;;22.00;42.60;;;;;;484659;246;1316;-51
2022/11/16 11:53:06;;;;;;;;;;;22.00;42.70;;;;;;484470;246;1349;-50
2022/11/16 11:55:07;;;;;;;;;;;22.00;42.80;;;;;;484521;246;1250;-51
2022/11/16 11:57:09;;;;;;;;;;;22.00;42.80;;;;;;484411;246;1349;-50
2022/11/16 11:59:10;;;;;;;;;;;22.00;42.90;;;;;;484559;246;1206;-50
2022/11/16 12:01:11;;;;;;;;;;;21.90;42.90;;;;;;484458;246;1571;-50
2022/11/16 12:03:13;;;;;;;;;;;21.90;42.90;;;;;;484612;246;1325;-50
2022/11/16 12:05:14;;;;;;;;;;;21.90;42.90;;;;;;484499;246;2199;-50
2022/11/16 12:07:15;;;;;;;;;;;21.90;42.90;;;;;;484511;246;1289;-50
2022/11/16 12:09:17;;;;;;;;;;;21.90;43.00;;;;;;484578;246;1224;-50
2022/11/16 12:11:18;;;;;;;;;;;22.00;43.00;;;;;;484532;246;1309;-50
2022/11/16 12:13:19;;;;;;;;;;;21.90;42.90;;;;;;484559;246;1228;-50
2022/11/16 12:15:21;;;;;;;;;;;21.90;42.90;;;;;;484710;246;1283;-50
2022/11/16 12:17:22;;;;;;;;;;;21.90;42.90;;;;;;484690;246;1210;-50
2022/11/16 12:19:23;;;;;;;;;;;21.90;42.90;;;;;;484473;246;1293;-50
2022/11/16 12:21:25;;;;;;;;;;;21.90;42.90;;;;;;484593;246;1230;-49
2022/11/16 12:23:26;;;;;;;;;;;22.00;43.00;;;;;;484620;246;1272;-50
2022/11/16 12:25:27;;;;;;;;;;;21.90;42.90;;;;;;484641;246;2199;-50
2022/11/16 12:27:29;;;;;;;;;;;21.90;43.00;;;;;;484533;246;1145;-49
2022/11/16 12:29:30;;;;;;;;;;;21.90;42.90;;;;;;484517;246;1262;-50
2022/11/16 12:31:32;;;;;;;;;;;21.90;43.00;;;;;;484503;246;1286;-51
2022/11/16 12:33:33;;;;;;;;;;;21.90;43.00;;;;;;484376;246;1212;-50
2022/11/16 12:35:34;;;;;;;;;;;21.90;43.10;;;;;;484470;246;1342;-50
2022/11/16 12:37:36;;;;;;;;;;;21.90;43.10;;;;;;484558;246;1313;-50